Miraflores de la Sierra, Spain
Current Conditions -  °F | °C
As of 11:00 AM on Tuesday 27 Jan 2015 (Local Time) from LEMD Reporting Station
Clear Clear  
Wind Chill: 41°   Ceiling: Unl
Heat Index: 45°   Visibility: 6mi
Dew Point: 34°   Wind: 6mph
Humidity: 66%   Direction: 160°SSE
Pressure: 30.39"   Gusts: NA
Location:  40.82°N, 3.76°W
Report Text: LEMD 271000Z 16005KT 110V240 CAVOK 07/01 Q1029 NOSIG
Loading
Personal Weather Stations






























Interactive Weather Map New forecast layout! Learn more

10-Day Weather Forecast

Advertisements
Track Severe Weather on mobile